createdAt,value
2022-12-16T00:00:03.748Z,83.2
2022-12-16T00:01:08.084Z,83.2
2022-12-16T00:02:11.978Z,83.2
2022-12-16T00:03:15.352Z,83.2
2022-12-16T00:04:18.388Z,83.3
2022-12-16T00:05:21.822Z,83.2
2022-12-16T00:06:24.104Z,83.2
2022-12-16T00:07:27.161Z,83.1
2022-12-16T00:08:29.465Z,83.1
2022-12-16T00:09:32.814Z,83
2022-12-16T00:10:35.659Z,82.9
2022-12-16T00:11:38.148Z,82.9
2022-12-16T00:12:40.286Z,82.9
2022-12-16T00:13:43.052Z,82.9
2022-12-16T00:14:46.042Z,82.9
2022-12-16T00:15:51.125Z,82.9
2022-12-16T00:16:56.236Z,83
2022-12-16T00:17:59.283Z,83.1
2022-12-16T00:19:01.958Z,83.1
2022-12-16T00:20:05.115Z,83.1
2022-12-16T00:21:08.423Z,83.1
2022-12-16T00:22:11.138Z,83.1
2022-12-16T00:23:13.288Z,83.1
2022-12-16T00:24:16.142Z,83.1
2022-12-16T00:25:19.466Z,83.2
2022-12-16T00:26:21.391Z,83.2
2022-12-16T00:27:24.125Z,83.1
2022-12-16T00:28:27.568Z,83
2022-12-16T00:29:30.361Z,82.9
2022-12-16T00:30:32.954Z,82.7
2022-12-16T00:31:37.084Z,82.6
2022-12-16T00:32:41.296Z,82.4
2022-12-16T00:33:43.993Z,82.2
2022-12-16T00:34:46.973Z,82.1
2022-12-16T00:35:53.891Z,82.1
2022-12-16T00:36:57.514Z,82.1
2022-12-16T00:38:00.361Z,82
2022-12-16T00:39:03.347Z,82
2022-12-16T00:40:06.779Z,82
2022-12-16T00:41:11.014Z,82
2022-12-16T00:42:14.362Z,81.9
2022-12-16T00:43:16.507Z,81.8
2022-12-16T00:44:19.830Z,81.7
2022-12-16T00:45:23.111Z,81.6
2022-12-16T00:46:27.072Z,81.7
2022-12-16T00:47:29.581Z,81.7
2022-12-16T00:48:33.619Z,81.7
2022-12-16T00:49:36.967Z,81.7
2022-12-16T00:50:39.939Z,81.7
2022-12-16T00:51:42.856Z,81.7
2022-12-16T00:52:45.928Z,81.7
2022-12-16T00:53:49.057Z,81.8
2022-12-16T00:54:55.409Z,81.9
2022-12-16T00:55:58.613Z,81.9
2022-12-16T00:57:01.383Z,81.9
2022-12-16T00:58:04.436Z,81.9
2022-12-16T00:59:07.296Z,81.9
2022-12-16T01:00:11.590Z,81.9
2022-12-16T01:01:14.327Z,81.8
2022-12-16T01:02:17.910Z,81.9
2022-12-16T01:03:23.964Z,81.7
2022-12-16T01:04:28.520Z,81.5
2022-12-16T01:05:31.777Z,81.5
2022-12-16T01:06:34.908Z,81.7
2022-12-16T01:07:37.412Z,81.9
2022-12-16T01:08:40.822Z,82
2022-12-16T01:09:43.616Z,82.2
2022-12-16T01:10:46.420Z,82.3
2022-12-16T01:11:48.843Z,82.2
2022-12-16T01:12:52.111Z,82
2022-12-16T01:13:56.404Z,82.1
2022-12-16T01:15:00.394Z,82.2
2022-12-16T01:16:03.951Z,82.3
2022-12-16T01:17:06.922Z,82.3
2022-12-16T01:18:09.593Z,82.2
2022-12-16T01:19:13.024Z,82.1
2022-12-16T01:20:17.349Z,82.1
2022-12-16T01:21:20.406Z,82.1
2022-12-16T01:22:22.354Z,82.1
2022-12-16T01:23:24.632Z,82.1
2022-12-16T01:24:27.707Z,82.1
2022-12-16T01:25:30.191Z,82.2
2022-12-16T01:26:33.030Z,82.1
2022-12-16T01:27:35.767Z,82
2022-12-16T01:28:38.746Z,81.9
2022-12-16T01:29:41.720Z,81.8
2022-12-16T01:30:44.141Z,81.7
2022-12-16T01:31:47.216Z,81.7
2022-12-16T01:32:50.938Z,81.6
2022-12-16T01:33:55.947Z,81.5
2022-12-16T01:34:59.154Z,81.5
2022-12-16T01:36:03.019Z,81.5
2022-12-16T01:37:06.720Z,81.6
2022-12-16T01:38:09.321Z,81.4
2022-12-16T01:39:12.086Z,81.3
2022-12-16T01:40:14.511Z,81.2
2022-12-16T01:41:17.849Z,81
2022-12-16T01:42:20.841Z,81
2022-12-16T01:43:24.095Z,81
2022-12-16T01:44:27.229Z,81
2022-12-16T01:45:30.240Z,80.9
2022-12-16T01:46:33.451Z,80.9
2022-12-16T01:47:36.235Z,80.9
2022-12-16T01:48:38.714Z,80.8
2022-12-16T01:49:41.433Z,80.8
2022-12-16T01:50:44.199Z,80.9
2022-12-16T01:51:56.565Z,80.9
2022-12-16T01:52:59.615Z,80.9
2022-12-16T01:54:02.402Z,80.9
2022-12-16T01:55:05.382Z,81.2
2022-12-16T01:56:08.085Z,81.3
2022-12-16T01:57:11.404Z,81.3
2022-12-16T01:58:14.449Z,81.4
2022-12-16T01:59:17.555Z,81.3
2022-12-16T02:00:20.311Z,81.4
2022-12-16T02:01:22.855Z,81.3
2022-12-16T02:02:26.544Z,81.3
2022-12-16T02:03:31.674Z,81.1
2022-12-16T02:04:34.567Z,81
2022-12-16T02:05:37.291Z,80.9
2022-12-16T02:06:39.904Z,80.9
2022-12-16T02:07:43.943Z,80.9
2022-12-16T02:08:46.794Z,80.9
2022-12-16T02:09:49.852Z,81
2022-12-16T02:10:56.282Z,81.1
2022-12-16T02:11:59.130Z,81.1
2022-12-16T02:13:01.147Z,81
2022-12-16T02:14:04.122Z,80.9
2022-12-16T02:15:06.970Z,80.9
2022-12-16T02:16:18.125Z,80.9
2022-12-16T02:17:21.246Z,81
2022-12-16T02:18:24.028Z,81
2022-12-16T02:19:26.830Z,81
2022-12-16T02:20:29.680Z,80.9
2022-12-16T02:21:33.060Z,80.9
2022-12-16T02:22:36.312Z,80.9
2022-12-16T02:23:39.866Z,80.9
2022-12-16T02:24:42.847Z,80.9
2022-12-16T02:25:45.543Z,81
2022-12-16T02:26:47.963Z,81
2022-12-16T02:27:50.729Z,81
2022-12-16T02:28:56.670Z,81
2022-12-16T02:29:59.092Z,81.1
2022-12-16T02:31:03.119Z,81
2022-12-16T02:32:06.687Z,81
2022-12-16T02:33:09.874Z,80.9
2022-12-16T02:34:12.656Z,81
2022-12-16T02:35:15.038Z,81
2022-12-16T02:36:17.270Z,81
2022-12-16T02:37:20.266Z,80.9
2022-12-16T02:38:23.221Z,80.8
2022-12-16T02:39:27.443Z,80.7
2022-12-16T02:40:30.380Z,80.7
2022-12-16T02:41:32.856Z,80.7
2022-12-16T02:42:36.537Z,80.8
2022-12-16T02:43:39.757Z,80.8
2022-12-16T02:44:43.002Z,80.8
2022-12-16T02:45:46.124Z,80.8
2022-12-16T02:46:49.383Z,80.8
2022-12-16T02:47:52.899Z,80.9
2022-12-16T02:48:57.258Z,81
2022-12-16T02:50:00.029Z,81
2022-12-16T02:51:03.343Z,81
2022-12-16T02:52:05.481Z,81
2022-12-16T02:53:08.576Z,81
2022-12-16T02:54:11.640Z,81.1
2022-12-16T02:55:15.398Z,81.1
2022-12-16T02:56:17.883Z,81
2022-12-16T02:57:20.373Z,81
2022-12-16T02:58:22.863Z,81
2022-12-16T02:59:26.289Z,81.1
2022-12-16T03:00:29.682Z,81.1
2022-12-16T03:01:33.472Z,81.1
2022-12-16T03:02:36.864Z,81
2022-12-16T03:03:39.979Z,81
2022-12-16T03:04:43.205Z,81
2022-12-16T03:05:46.536Z,81
2022-12-16T03:06:49.881Z,81
2022-12-16T03:07:53.130Z,81.2
2022-12-16T03:08:56.212Z,81.3
2022-12-16T03:09:58.746Z,81.3
2022-12-16T03:11:02.545Z,81.3
2022-12-16T03:12:04.867Z,81
2022-12-16T03:13:07.435Z,81.2
2022-12-16T03:14:09.572Z,81
2022-12-16T03:15:12.074Z,80.9
2022-12-16T03:16:15.536Z,80.8
2022-12-16T03:17:18.973Z,80.8
2022-12-16T03:18:21.741Z,80.8
2022-12-16T03:19:25.164Z,80.6
2022-12-16T03:20:28.136Z,80.6
2022-12-16T03:21:30.715Z,80.6
2022-12-16T03:22:33.485Z,80.7
2022-12-16T03:23:36.857Z,80.7
2022-12-16T03:24:40.039Z,80.7
2022-12-16T03:25:43.412Z,80.7
2022-12-16T03:26:46.987Z,80.8
2022-12-16T03:27:50.030Z,81
2022-12-16T03:28:52.721Z,81.1
2022-12-16T03:29:54.721Z,81.1
2022-12-16T03:30:57.388Z,81.3
2022-12-16T03:31:59.984Z,81.2
2022-12-16T03:33:03.032Z,81.2
2022-12-16T03:34:06.533Z,81.2
2022-12-16T03:35:09.609Z,81.2
2022-12-16T03:36:12.463Z,81.2
2022-12-16T03:37:14.323Z,81.2
2022-12-16T03:38:17.740Z,81.2
2022-12-16T03:39:20.537Z,81.2
2022-12-16T03:40:23.270Z,81.2
2022-12-16T03:41:25.931Z,81.2
2022-12-16T03:42:30.513Z,81.3
2022-12-16T03:43:35.671Z,81.5
2022-12-16T03:44:38.579Z,81.5
2022-12-16T03:45:41.451Z,81.4
2022-12-16T03:46:44.332Z,81.5
2022-12-16T03:47:47.416Z,81.5
2022-12-16T03:48:50.268Z,81.3
2022-12-16T03:49:53.594Z,81.3
2022-12-16T03:50:56.968Z,81.3
2022-12-16T03:51:59.497Z,81.1
2022-12-16T03:53:02.661Z,81.1
2022-12-16T03:54:05.516Z,81
2022-12-16T03:55:08.565Z,81
2022-12-16T03:56:11.320Z,81.1
2022-12-16T03:57:17.096Z,81.1
2022-12-16T03:58:20.868Z,81.2
2022-12-16T03:59:23.363Z,81.2
2022-12-16T04:00:26.151Z,81.2
2022-12-16T04:01:30.346Z,81.2
2022-12-16T04:02:34.811Z,81.1
2022-12-16T04:03:38.920Z,81.1
2022-12-16T04:04:41.825Z,81.1
2022-12-16T04:05:44.965Z,81
2022-12-16T04:06:47.534Z,81
2022-12-16T04:07:50.323Z,81
2022-12-16T04:08:53.452Z,80.9
2022-12-16T04:09:57.085Z,80.9
2022-12-16T04:10:59.931Z,80.9
2022-12-16T04:12:02.407Z,80.9
2022-12-16T04:13:04.995Z,80.9
2022-12-16T04:14:09.999Z,80.9
2022-12-16T04:15:13.038Z,80.9
2022-12-16T04:16:15.912Z,80.9
2022-12-16T04:17:19.160Z,80.8
2022-12-16T04:18:21.861Z,80.8
2022-12-16T04:19:24.778Z,80.8
2022-12-16T04:20:26.922Z,80.9
2022-12-16T04:21:29.424Z,80.9
2022-12-16T04:22:32.128Z,81
2022-12-16T04:23:36.632Z,80.9
2022-12-16T04:24:39.122Z,80.8
2022-12-16T04:25:42.852Z,80.8
2022-12-16T04:26:45.087Z,80.7
2022-12-16T04:27:47.995Z,80.6
2022-12-16T04:28:51.119Z,80.6
2022-12-16T04:29:55.178Z,80.6
2022-12-16T04:30:58.651Z,80.6
2022-12-16T04:32:01.841Z,80.6
2022-12-16T04:33:04.663Z,80.6
2022-12-16T04:34:07.368Z,80.7
2022-12-16T04:35:10.142Z,80.6
2022-12-16T04:36:13.184Z,80.5
2022-12-16T04:37:16.688Z,80.4
2022-12-16T04:38:19.664Z,80.3
2022-12-16T04:39:22.800Z,80.3
2022-12-16T04:40:25.791Z,80.3
2022-12-16T04:41:28.333Z,80.3
2022-12-16T04:42:32.226Z,80.3
2022-12-16T04:43:36.423Z,80.4
2022-12-16T04:44:40.229Z,80.5
2022-12-16T04:45:44.349Z,80.5
2022-12-16T04:46:47.559Z,80.5
2022-12-16T04:47:58.601Z,80.6
2022-12-16T04:49:01.573Z,80.5
2022-12-16T04:50:04.069Z,80.5
2022-12-16T04:51:06.846Z,80.5
2022-12-16T04:52:09.828Z,80.5
2022-12-16T04:53:12.730Z,80.5
2022-12-16T04:54:15.150Z,80.4
2022-12-16T04:55:17.660Z,80.4
2022-12-16T04:56:20.633Z,80.4
2022-12-16T04:57:23.150Z,80.4
2022-12-16T04:58:25.844Z,80.5
2022-12-16T04:59:29.472Z,80.5
2022-12-16T05:00:32.133Z,80.5
2022-12-16T05:01:36.798Z,80.7
2022-12-16T05:02:40.620Z,80.7
2022-12-16T05:03:44.048Z,80.7
2022-12-16T05:04:47.283Z,80.7
2022-12-16T05:05:50.462Z,80.6
2022-12-16T05:06:53.800Z,80.5
2022-12-16T05:07:56.298Z,80.4
2022-12-16T05:08:59.346Z,80.3
2022-12-16T05:10:02.436Z,80.3
2022-12-16T05:11:05.785Z,80.3
2022-12-16T05:12:08.554Z,80.2
2022-12-16T05:13:11.996Z,80.3
2022-12-16T05:14:14.755Z,80.3
2022-12-16T05:15:17.487Z,80.2
2022-12-16T05:16:20.754Z,80.2
2022-12-16T05:17:24.662Z,80.1
2022-12-16T05:18:26.606Z,80.1
2022-12-16T05:19:33.244Z,80.1
2022-12-16T05:20:36.219Z,80.1
2022-12-16T05:21:38.640Z,80.1
2022-12-16T05:22:41.058Z,80.2
2022-12-16T05:23:43.558Z,80.2
2022-12-16T05:24:53.931Z,80.3
2022-12-16T05:25:56.432Z,80.3
2022-12-16T05:26:59.767Z,80.4
2022-12-16T05:28:03.137Z,80.4
2022-12-16T05:29:06.106Z,80.4
2022-12-16T05:30:08.881Z,80.4
2022-12-16T05:31:11.909Z,80.5
2022-12-16T05:32:15.251Z,80.6
2022-12-16T05:33:19.442Z,80.6
2022-12-16T05:34:22.419Z,80.7
2022-12-16T05:35:25.572Z,80.7
2022-12-16T05:36:28.289Z,80.8
2022-12-16T05:37:31.489Z,80.8
2022-12-16T05:38:34.181Z,80.8
2022-12-16T05:39:36.677Z,80.8
2022-12-16T05:40:40.393Z,80.9
2022-12-16T05:41:43.108Z,80.9
2022-12-16T05:42:45.756Z,81
2022-12-16T05:43:48.832Z,81
2022-12-16T05:44:51.333Z,81.1
2022-12-16T05:45:54.357Z,81.1
2022-12-16T05:46:58.121Z,81.2
2022-12-16T05:48:01.043Z,81.3
2022-12-16T05:49:04.817Z,81.5
2022-12-16T05:50:07.319Z,81.5
2022-12-16T05:51:10.372Z,81.6
2022-12-16T05:52:13.426Z,81.7
2022-12-16T05:53:15.668Z,81.7
2022-12-16T05:54:18.813Z,81.7
2022-12-16T05:55:21.307Z,81.7
2022-12-16T05:56:23.447Z,81.6
2022-12-16T05:57:26.498Z,81.7
2022-12-16T05:58:29.305Z,81.6
2022-12-16T05:59:31.797Z,81.7
2022-12-16T06:00:34.557Z,81.7
2022-12-16T06:01:37.092Z,81.7
2022-12-16T06:02:41.702Z,81.7
2022-12-16T06:03:46.567Z,81.7
2022-12-16T06:04:50.766Z,81.6
2022-12-16T06:05:53.546Z,81.5
2022-12-16T06:06:56.979Z,81.5
2022-12-16T06:08:00.045Z,81.6
2022-12-16T06:09:02.472Z,81.6
2022-12-16T06:10:05.808Z,81.6
2022-12-16T06:11:09.138Z,81.7
2022-12-16T06:12:12.282Z,81.7
2022-12-16T06:13:14.571Z,81.7
2022-12-16T06:14:17.652Z,81.7
2022-12-16T06:15:20.801Z,81.8
2022-12-16T06:16:23.297Z,81.8
2022-12-16T06:17:26.178Z,81.8
2022-12-16T06:18:29.259Z,81.7
2022-12-16T06:19:32.064Z,81.7
2022-12-16T06:20:36.337Z,81.7
2022-12-16T06:21:39.453Z,81.8
2022-12-16T06:22:42.499Z,81.8
2022-12-16T06:23:45.343Z,81.9
2022-12-16T06:24:48.204Z,81.9
2022-12-16T06:25:51.807Z,81.9
2022-12-16T06:26:54.908Z,81.9
2022-12-16T06:27:57.689Z,81.9
2022-12-16T06:29:00.115Z,82
2022-12-16T06:30:03.446Z,81.9
2022-12-16T06:31:06.152Z,81.9
2022-12-16T06:32:09.043Z,81.9
2022-12-16T06:33:12.156Z,81.9
2022-12-16T06:34:15.523Z,81.9
2022-12-16T06:35:18.345Z,81.9
2022-12-16T06:36:22.003Z,81.8
2022-12-16T06:37:25.612Z,81.7
2022-12-16T06:38:28.114Z,81.7
2022-12-16T06:39:31.184Z,81.7
2022-12-16T06:40:33.773Z,81.7
2022-12-16T06:41:35.921Z,81.6
2022-12-16T06:42:38.418Z,81.4
2022-12-16T06:43:41.202Z,81.2
2022-12-16T06:44:43.623Z,81.1
2022-12-16T06:45:46.945Z,81.1
2022-12-16T06:46:50.102Z,81.1
2022-12-16T06:47:53.444Z,81.2
2022-12-16T06:48:56.654Z,81.2
2022-12-16T06:50:00.108Z,81.3
2022-12-16T06:51:03.284Z,81.4
2022-12-16T06:52:07.353Z,81.4
2022-12-16T06:53:10.358Z,81.4
2022-12-16T06:54:13.492Z,81.4
2022-12-16T06:55:16.750Z,81.4
2022-12-16T06:56:19.804Z,81.5
2022-12-16T06:57:23.127Z,81.5
2022-12-16T06:58:25.879Z,81.5
2022-12-16T06:59:28.651Z,81.4
2022-12-16T07:00:32.027Z,81.4
2022-12-16T07:01:35.777Z,81.4
2022-12-16T07:02:40.094Z,81.2
2022-12-16T07:03:44.704Z,81.2
2022-12-16T07:04:47.823Z,81.2
2022-12-16T07:05:50.540Z,81.1
2022-12-16T07:06:53.845Z,81.2
2022-12-16T07:07:58.357Z,81.3
2022-12-16T07:09:01.417Z,81.4
2022-12-16T07:10:05.121Z,81.4
2022-12-16T07:11:18.552Z,81.4
2022-12-16T07:12:21.810Z,81.4
2022-12-16T07:13:24.044Z,81.3
2022-12-16T07:14:26.608Z,81.4
2022-12-16T07:15:29.107Z,81.4
2022-12-16T07:16:32.636Z,81.4
2022-12-16T07:17:35.967Z,81.5
2022-12-16T07:18:38.841Z,81.5
2022-12-16T07:19:42.248Z,81.5
2022-12-16T07:20:45.034Z,81.6
2022-12-16T07:21:47.929Z,81.6
2022-12-16T07:23:20.166Z,81.6
2022-12-16T07:24:24.143Z,81.5
2022-12-16T07:25:27.267Z,81.6
2022-12-16T07:26:30.509Z,81.5
2022-12-16T07:27:33.834Z,81.6
2022-12-16T07:28:37.234Z,81.6
2022-12-16T07:29:40.905Z,81.7
2022-12-16T07:30:43.751Z,81.6
2022-12-16T07:31:47.542Z,81.6
2022-12-16T07:32:50.711Z,81.6
2022-12-16T07:33:53.279Z,81.6
2022-12-16T07:34:56.526Z,81.6
2022-12-16T07:35:59.104Z,81.6
2022-12-16T07:37:02.095Z,81.6
2022-12-16T07:38:05.179Z,81.6
2022-12-16T07:39:09.131Z,81.7
2022-12-16T07:40:13.244Z,81.7
2022-12-16T07:41:16.084Z,81.7
2022-12-16T07:42:19.406Z,81.6
2022-12-16T07:43:22.282Z,81.4
2022-12-16T07:44:25.903Z,81.3
2022-12-16T07:45:29.805Z,81.2
2022-12-16T07:46:32.790Z,81.2
2022-12-16T07:47:35.757Z,81.1
2022-12-16T07:48:39.083Z,81.1
2022-12-16T07:49:41.852Z,81.2
2022-12-16T07:50:44.637Z,81.2
2022-12-16T07:51:47.766Z,81.1
2022-12-16T07:52:51.363Z,81.1
2022-12-16T07:53:57.568Z,81.1
2022-12-16T07:55:01.030Z,81.1
2022-12-16T07:56:05.466Z,81
2022-12-16T07:57:08.795Z,80.9
2022-12-16T07:58:11.280Z,80.6
2022-12-16T07:59:14.338Z,80.6
2022-12-16T08:00:17.552Z,80.5
2022-12-16T08:01:21.192Z,80.5
2022-12-16T08:02:24.868Z,80.5
2022-12-16T08:03:28.664Z,80.5
2022-12-16T08:04:32.540Z,80.5
2022-12-16T08:05:36.024Z,80.3
2022-12-16T08:06:41.919Z,80.3
2022-12-16T08:07:44.778Z,80.3
2022-12-16T08:08:48.542Z,80.2
2022-12-16T08:09:52.142Z,80.2
2022-12-16T08:10:56.575Z,80.3
2022-12-16T08:12:00.691Z,80.4
2022-12-16T08:13:03.759Z,80.4
2022-12-16T08:14:06.803Z,80.4
2022-12-16T08:15:09.999Z,80.2
2022-12-16T08:16:13.468Z,80.2
2022-12-16T08:17:16.769Z,80
2022-12-16T08:18:19.957Z,79.9
2022-12-16T08:19:22.923Z,79.9
2022-12-16T08:20:26.041Z,80.1
2022-12-16T08:21:29.653Z,80.1
2022-12-16T08:22:32.353Z,80.2
2022-12-16T08:23:36.935Z,80.2
2022-12-16T08:24:40.711Z,80.1
2022-12-16T08:25:44.144Z,80
2022-12-16T08:26:47.527Z,80.1
2022-12-16T08:27:51.400Z,80.1
2022-12-16T08:28:55.661Z,80.1
2022-12-16T08:30:48.168Z,79.9
2022-12-16T08:31:51.759Z,79.8
2022-12-16T08:33:20.074Z,79.6
2022-12-16T08:34:23.115Z,79.5
2022-12-16T08:35:26.795Z,79.6
2022-12-16T08:36:29.597Z,79.6
2022-12-16T08:37:32.727Z,79.4
2022-12-16T08:38:36.370Z,79.3
2022-12-16T08:39:39.577Z,79.2
2022-12-16T08:40:43.194Z,79.1
2022-12-16T08:41:45.971Z,79.1
2022-12-16T08:42:49.149Z,79.1
2022-12-16T08:43:53.066Z,79.1
2022-12-16T08:44:57.548Z,79.1
2022-12-16T08:46:00.914Z,79.1
2022-12-16T08:47:04.140Z,79.1
2022-12-16T08:48:06.928Z,79.2
2022-12-16T08:49:09.982Z,79.3
2022-12-16T08:50:12.560Z,79.3
2022-12-16T08:51:15.331Z,79.4
2022-12-16T08:52:18.200Z,79.4
2022-12-16T08:53:21.525Z,79.3
2022-12-16T08:54:24.120Z,79.4
2022-12-16T08:55:31.057Z,79.6
2022-12-16T08:56:34.100Z,79.6
2022-12-16T08:57:37.269Z,79.6
2022-12-16T08:58:40.781Z,79.5
2022-12-16T08:59:44.903Z,79.4
2022-12-16T09:00:47.323Z,79.4
2022-12-16T09:01:52.272Z,79.4
2022-12-16T09:02:59.526Z,79.5
2022-12-16T09:04:03.776Z,79.5
2022-12-16T09:05:07.098Z,79.5
2022-12-16T09:06:10.264Z,79.5
2022-12-16T09:07:13.307Z,79.5
2022-12-16T09:08:16.397Z,79.5
2022-12-16T09:09:19.290Z,79.4
2022-12-16T09:10:22.337Z,79.4
2022-12-16T09:11:25.666Z,79.4
2022-12-16T09:12:28.661Z,79.5
2022-12-16T09:13:34.284Z,79.5
2022-12-16T09:14:38.537Z,79.5
2022-12-16T09:15:42.723Z,79.3
2022-12-16T09:16:46.044Z,79.2
2022-12-16T09:17:48.813Z,79.2
2022-12-16T09:18:51.526Z,79.1
2022-12-16T09:19:56.441Z,79.1
2022-12-16T09:20:59.894Z,79.1
2022-12-16T09:22:02.941Z,79.1
2022-12-16T09:23:05.733Z,79.1
2022-12-16T09:24:09.829Z,79.2
2022-12-16T09:25:12.403Z,79.2
2022-12-16T09:26:15.911Z,79.1
2022-12-16T09:27:19.276Z,79
2022-12-16T09:28:22.360Z,78.9
2022-12-16T09:29:24.687Z,78.6
2022-12-16T09:30:28.240Z,78.6
2022-12-16T09:31:32.688Z,78.7
2022-12-16T09:32:35.872Z,78.6
2022-12-16T09:33:38.987Z,78.6
2022-12-16T09:34:41.664Z,78.6
2022-12-16T09:35:44.989Z,78.8
2022-12-16T09:36:48.207Z,78.9
2022-12-16T09:37:52.451Z,78.9
2022-12-16T09:38:58.214Z,78.9
2022-12-16T09:40:01.630Z,78.8
2022-12-16T09:41:04.716Z,78.7
2022-12-16T09:42:07.301Z,78.7
2022-12-16T09:43:11.488Z,78.7
2022-12-16T09:44:14.295Z,78.6
2022-12-16T09:45:17.868Z,78.6
2022-12-16T09:46:21.213Z,78.7
2022-12-16T09:47:25.703Z,78.7
2022-12-16T09:48:29.194Z,78.7
2022-12-16T09:49:32.249Z,78.7
2022-12-16T09:50:35.026Z,78.7
2022-12-16T09:51:38.382Z,78.7
2022-12-16T09:52:41.434Z,78.7
2022-12-16T09:53:44.848Z,78.8
2022-12-16T09:54:47.926Z,78.8
2022-12-16T09:55:51.218Z,78.9
2022-12-16T09:56:56.460Z,79
2022-12-16T09:57:58.899Z,78.9
2022-12-16T09:59:02.061Z,78.9
2022-12-16T10:00:04.264Z,78.8
2022-12-16T10:01:06.717Z,78.8
2022-12-16T10:02:10.724Z,78.8
2022-12-16T10:03:15.948Z,78.9
2022-12-16T10:04:19.347Z,78.9
2022-12-16T10:05:23.083Z,78.9
2022-12-16T10:06:25.512Z,79
2022-12-16T10:07:28.347Z,79
2022-12-16T10:08:31.168Z,79
2022-12-16T10:09:34.146Z,78.8
2022-12-16T10:10:38.263Z,78.7
2022-12-16T10:11:40.754Z,78.7
2022-12-16T10:12:44.083Z,78.6
2022-12-16T10:13:46.342Z,78.6
2022-12-16T10:14:49.397Z,78.7
2022-12-16T10:15:54.762Z,78.7
2022-12-16T10:16:59.271Z,78.6
2022-12-16T10:18:02.678Z,78.6
2022-12-16T10:19:06.341Z,78.8
2022-12-16T10:20:10.936Z,78.9
2022-12-16T10:21:14.620Z,79
2022-12-16T10:22:17.857Z,79.1
2022-12-16T10:23:20.667Z,79.1
2022-12-16T10:24:23.086Z,79
2022-12-16T10:25:27.019Z,79.1
2022-12-16T10:26:29.711Z,79.1
2022-12-16T10:27:32.482Z,78.9
2022-12-16T10:28:35.567Z,78.9
2022-12-16T10:29:38.537Z,78.8
2022-12-16T10:30:41.593Z,78.7
2022-12-16T10:31:44.985Z,78.7
2022-12-16T10:32:48.006Z,78.7
2022-12-16T10:33:51.747Z,78.9
2022-12-16T10:34:57.158Z,79
2022-12-16T10:36:00.866Z,78.9
2022-12-16T10:37:21.651Z,78.8
2022-12-16T10:38:24.170Z,78.9
2022-12-16T10:39:27.258Z,79
2022-12-16T10:40:29.782Z,79
2022-12-16T10:41:32.878Z,79.1
2022-12-16T10:42:36.003Z,79
2022-12-16T10:43:40.472Z,78.9
2022-12-16T10:44:42.968Z,78.8
2022-12-16T10:45:45.566Z,78.8
2022-12-16T10:46:49.122Z,78.8
2022-12-16T10:47:53.991Z,78.9
2022-12-16T10:48:59.975Z,79
2022-12-16T10:50:04.844Z,79
2022-12-16T10:51:09.499Z,78.9
2022-12-16T10:52:11.921Z,78.7
2022-12-16T10:53:14.709Z,78.6
2022-12-16T10:54:18.432Z,78.6
2022-12-16T10:55:21.635Z,78.4
2022-12-16T10:56:24.963Z,78.4
2022-12-16T10:57:27.656Z,78.5
2022-12-16T10:58:36.558Z,78.5
2022-12-16T10:59:39.883Z,78.6
2022-12-16T11:00:42.954Z,78.6
2022-12-16T11:01:46.301Z,78.6
2022-12-16T11:02:51.509Z,78.6
2022-12-16T11:03:56.240Z,78.5
2022-12-16T11:05:00.084Z,78.5
2022-12-16T11:06:03.969Z,78.2
2022-12-16T11:07:06.498Z,78.1
2022-12-16T11:08:10.099Z,77.8
2022-12-16T11:09:13.254Z,77.5
2022-12-16T11:10:24.018Z,77.3
2022-12-16T11:11:27.151Z,77.4
2022-12-16T11:12:30.205Z,77.4
2022-12-16T11:13:34.484Z,77.3
2022-12-16T11:14:38.256Z,77.5
2022-12-16T11:15:44.098Z,77.4
2022-12-16T11:16:47.388Z,77.4
2022-12-16T11:17:50.750Z,77.4
2022-12-16T11:18:56.021Z,77.2
2022-12-16T11:19:59.453Z,77.1
2022-12-16T11:21:17.202Z,76.9
2022-12-16T11:22:20.982Z,76.8
2022-12-16T11:23:23.697Z,76.8
2022-12-16T11:24:26.577Z,76.9
2022-12-16T11:25:29.921Z,77
2022-12-16T11:26:38.681Z,77.1
2022-12-16T11:27:42.005Z,77.2
2022-12-16T11:28:45.706Z,77.4
2022-12-16T11:29:48.404Z,77.5
2022-12-16T11:30:51.650Z,77.6
2022-12-16T11:32:02.642Z,77.6
2022-12-16T11:33:05.914Z,77.6
2022-12-16T11:34:09.397Z,77.7
2022-12-16T11:35:12.490Z,77.8
2022-12-16T11:36:16.515Z,77.7
2022-12-16T11:37:22.448Z,77.7
2022-12-16T11:38:26.400Z,77.6
2022-12-16T11:39:29.755Z,77.6
2022-12-16T11:40:33.089Z,77.7
2022-12-16T11:41:35.863Z,77.7
2022-12-16T11:42:38.916Z,77.7
2022-12-16T11:43:42.179Z,77.6
2022-12-16T11:44:45.023Z,77.5
2022-12-16T11:45:48.437Z,77.5
2022-12-16T11:46:56.261Z,77.3
2022-12-16T11:47:59.503Z,77.2
2022-12-16T11:49:02.157Z,77.2
2022-12-16T11:50:05.513Z,77.1
2022-12-16T11:51:08.215Z,77.1
2022-12-16T11:52:38.753Z,77.1
2022-12-16T11:53:42.847Z,77.1
2022-12-16T11:54:46.347Z,77.2
2022-12-16T11:56:17.347Z,77.3
2022-12-16T11:57:20.960Z,77.3
2022-12-16T11:58:23.547Z,77.3
2022-12-16T11:59:26.528Z,77.3
2022-12-16T12:00:29.472Z,77.3
2022-12-16T12:01:33.457Z,77.2
2022-12-16T12:02:37.073Z,77.2
2022-12-16T12:03:41.949Z,77.2
2022-12-16T12:04:45.691Z,77.2
2022-12-16T12:05:49.311Z,77
2022-12-16T12:06:52.161Z,76.9
2022-12-16T12:07:57.056Z,76.9
2022-12-16T12:09:01.199Z,77
2022-12-16T12:10:03.982Z,77.1
2022-12-16T12:11:07.053Z,77
2022-12-16T12:12:11.260Z,77
2022-12-16T12:13:13.959Z,77.1
2022-12-16T12:14:17.015Z,77.1
2022-12-16T12:15:19.788Z,77.1
2022-12-16T12:16:22.577Z,77
2022-12-16T12:17:26.113Z,77.1
2022-12-16T12:18:29.190Z,77
2022-12-16T12:19:31.666Z,77
2022-12-16T12:20:34.755Z,77.1
2022-12-16T12:21:38.550Z,77.1
2022-12-16T12:22:40.757Z,77.1
2022-12-16T12:23:44.232Z,77.2
2022-12-16T12:24:50.468Z,77.1
2022-12-16T12:26:00.768Z,77
2022-12-16T12:27:03.835Z,76.9
2022-12-16T12:28:06.418Z,76.9
2022-12-16T12:29:09.744Z,76.8
2022-12-16T12:30:17.909Z,76.8
2022-12-16T12:31:21.569Z,77
2022-12-16T12:32:24.820Z,77.1
2022-12-16T12:33:28.801Z,77.1
2022-12-16T12:34:31.883Z,77.2
2022-12-16T12:35:35.285Z,77.2
2022-12-16T12:36:39.459Z,77.3
2022-12-16T12:37:43.116Z,77.3
2022-12-16T12:38:46.284Z,77.5
2022-12-16T12:39:49.220Z,77.4
2022-12-16T12:40:53.752Z,77.4
2022-12-16T12:41:58.019Z,77.4
2022-12-16T12:43:01.454Z,77.5
2022-12-16T12:44:05.014Z,77.6
2022-12-16T12:45:09.176Z,77.6
2022-12-16T12:46:12.532Z,77.6
2022-12-16T12:47:16.191Z,77.6
2022-12-16T12:48:19.455Z,77.6
2022-12-16T12:49:22.316Z,77.5
2022-12-16T12:50:25.680Z,77.6
2022-12-16T12:51:28.536Z,77.5
2022-12-16T12:52:31.594Z,77.4
2022-12-16T12:53:37.017Z,77.5
2022-12-16T12:54:40.706Z,77.4
2022-12-16T12:55:43.895Z,77.4
2022-12-16T12:56:47.927Z,77.3
2022-12-16T12:57:51.644Z,77.4
2022-12-16T12:58:58.214Z,77.5
2022-12-16T13:00:03.974Z,77.5
2022-12-16T13:01:07.401Z,77.4
2022-12-16T13:02:11.906Z,77.4
2022-12-16T13:03:15.599Z,77.5
2022-12-16T13:04:18.726Z,77.5
2022-12-16T13:05:25.998Z,77.5
2022-12-16T13:06:29.249Z,77.6
2022-12-16T13:07:32.422Z,77.6
2022-12-16T13:08:35.528Z,77.7
2022-12-16T13:09:38.312Z,77.7
2022-12-16T13:10:41.524Z,77.7
2022-12-16T13:11:45.139Z,77.7
2022-12-16T13:12:49.056Z,77.7
2022-12-16T13:13:52.773Z,77.6
2022-12-16T13:14:58.667Z,77.6
2022-12-16T13:16:02.434Z,77.5
2022-12-16T13:17:05.718Z,77.5
2022-12-16T13:18:09.390Z,77.5
2022-12-16T13:19:13.167Z,77.6
2022-12-16T13:20:16.900Z,77.6
2022-12-16T13:21:19.756Z,77.6
2022-12-16T13:22:23.464Z,77.7
2022-12-16T13:23:27.173Z,77.6
2022-12-16T13:24:30.157Z,77.7
2022-12-16T13:25:33.886Z,77.7
2022-12-16T13:26:37.331Z,77.8
2022-12-16T13:27:40.502Z,77.9
2022-12-16T13:28:44.604Z,78
2022-12-16T13:29:47.663Z,78.1
2022-12-16T13:30:49.754Z,78.1
2022-12-16T13:31:56.947Z,78.1
2022-12-16T13:33:00.358Z,78.1
2022-12-16T13:34:04.001Z,78
2022-12-16T13:35:07.342Z,78
2022-12-16T13:36:10.497Z,78.1
2022-12-16T13:37:13.262Z,78
2022-12-16T13:38:18.927Z,77.9
2022-12-16T13:39:22.018Z,78
2022-12-16T13:40:25.009Z,78
2022-12-16T13:41:28.044Z,78
2022-12-16T13:42:31.501Z,78
2022-12-16T13:43:35.932Z,77.9
2022-12-16T13:44:40.487Z,78.1
2022-12-16T13:45:43.716Z,78.3
2022-12-16T13:46:45.961Z,78.3
2022-12-16T13:47:49.231Z,78.3
2022-12-16T13:48:52.027Z,78.3
2022-12-16T13:49:55.093Z,78.3
2022-12-16T13:50:57.633Z,78.3
2022-12-16T13:52:00.778Z,78.3
2022-12-16T13:53:04.385Z,78.2
2022-12-16T13:54:07.823Z,78.1
2022-12-16T13:55:10.644Z,78
2022-12-16T13:56:13.696Z,77.9
2022-12-16T13:57:17.128Z,77.9
2022-12-16T13:58:19.928Z,78
2022-12-16T13:59:23.040Z,78
2022-12-16T14:00:36.200Z,78.2
2022-12-16T14:01:40.555Z,78.3
2022-12-16T14:02:44.446Z,78.4
2022-12-16T14:03:48.027Z,78.6
2022-12-16T14:04:51.673Z,79
2022-12-16T14:05:55.112Z,78.8
2022-12-16T14:06:58.176Z,78.6
2022-12-16T14:08:01.790Z,78.4
2022-12-16T14:09:05.072Z,78.3
2022-12-16T14:10:08.533Z,78.2
2022-12-16T14:11:11.078Z,78.1
2022-12-16T14:12:13.312Z,78.2
2022-12-16T14:13:16.711Z,78.2